createdAt,value
2019-06-26T00:00:56.196Z,24.55
2019-06-26T00:03:26.450Z,24.48
2019-06-26T00:05:56.826Z,24.43
2019-06-26T00:08:27.330Z,24.37
2019-06-26T00:10:57.996Z,24.31
2019-06-26T00:13:28.834Z,24.28
2019-06-26T00:15:59.124Z,24.24
2019-06-26T00:18:29.901Z,24.19
2019-06-26T00:21:00.224Z,24.20
2019-06-26T00:23:30.882Z,24.17
2019-06-26T00:26:01.387Z,24.20
2019-06-26T00:28:31.644Z,24.16
2019-06-26T00:31:02.207Z,24.13
2019-06-26T00:33:32.390Z,24.09
2019-06-26T00:36:02.656Z,24.04
2019-06-26T00:38:33.106Z,24.00
2019-06-26T00:43:42.900Z,23.98
2019-06-26T00:46:14.788Z,23.91
2019-06-26T00:48:45.278Z,23.92
2019-06-26T00:51:15.657Z,23.85
2019-06-26T00:53:46.550Z,23.79
2019-06-26T00:56:16.831Z,23.73
2019-06-26T00:58:47.382Z,23.67
2019-06-26T01:01:18.008Z,23.66
2019-06-26T01:03:50.032Z,23.60
2019-06-26T01:06:37.952Z,23.55
2019-06-26T01:09:09.231Z,23.51
2019-06-26T01:11:39.495Z,23.52
2019-06-26T01:14:09.785Z,23.54
2019-06-26T01:16:40.098Z,23.53
2019-06-26T01:19:10.293Z,23.53
2019-06-26T01:21:40.598Z,23.47
2019-06-26T01:24:10.855Z,23.42
2019-06-26T01:26:41.392Z,23.38
2019-06-26T01:29:12.235Z,23.33
2019-06-26T01:31:42.859Z,23.29
2019-06-26T01:34:13.080Z,23.30
2019-06-26T01:36:43.256Z,23.27
2019-06-26T01:39:13.636Z,23.19
2019-06-26T01:41:43.854Z,23.18
2019-06-26T01:44:15.672Z,23.13
2019-06-26T01:46:45.961Z,23.13
2019-06-26T01:49:16.832Z,23.10
2019-06-26T01:51:47.373Z,23.09
2019-06-26T01:54:17.898Z,23.15
2019-06-26T01:56:48.158Z,23.14
2019-06-26T01:59:18.847Z,23.17
2019-06-26T02:01:49.128Z,23.21
2019-06-26T02:04:20.496Z,23.22
2019-06-26T02:06:51.175Z,23.19
2019-06-26T02:09:21.473Z,23.11
2019-06-26T02:11:51.710Z,23.01
2019-06-26T02:14:31.024Z,22.98
2019-06-26T02:19:36.364Z,22.84
2019-06-26T02:22:06.849Z,22.76
2019-06-26T02:24:37.075Z,22.73
2019-06-26T02:27:07.779Z,22.68
2019-06-26T02:29:38.400Z,22.68
2019-06-26T02:32:08.978Z,22.67
2019-06-26T02:34:39.763Z,22.60
2019-06-26T02:37:10.015Z,22.56
2019-06-26T02:39:40.303Z,22.50
2019-06-26T02:42:10.567Z,22.45
2019-06-26T02:44:53.092Z,22.38
2019-06-26T02:47:20.037Z,22.35
2019-06-26T02:49:45.201Z,22.35
2019-06-26T02:52:15.555Z,22.35
2019-06-26T02:54:45.905Z,22.36
2019-06-26T02:57:16.108Z,22.39
2019-06-26T02:59:46.651Z,22.33
2019-06-26T03:02:17.296Z,22.26
2019-06-26T03:04:47.860Z,22.17
2019-06-26T03:07:18.964Z,22.12
2019-06-26T03:09:49.193Z,22.15
2019-06-26T03:12:19.484Z,22.13
2019-06-26T03:14:49.756Z,22.12
2019-06-26T03:17:20.107Z,22.13
2019-06-26T03:19:50.494Z,22.13
2019-06-26T03:22:20.916Z,22.11
2019-06-26T03:24:51.161Z,22.04
2019-06-26T03:27:22.104Z,21.98
2019-06-26T03:29:52.670Z,21.94
2019-06-26T03:32:22.912Z,21.96
2019-06-26T03:34:53.626Z,21.92
2019-06-26T03:37:23.828Z,21.92
2019-06-26T03:39:54.138Z,21.99
2019-06-26T03:42:24.672Z,21.97
2019-06-26T03:44:54.976Z,22.03
2019-06-26T03:47:25.993Z,22.03
2019-06-26T03:49:56.459Z,22.05
2019-06-26T03:52:27.019Z,22.07
2019-06-26T03:54:57.654Z,22.04
2019-06-26T03:57:27.968Z,22.02
2019-06-26T03:59:58.422Z,22.01
2019-06-26T04:02:28.987Z,22.01
2019-06-26T04:04:59.477Z,22.07
2019-06-26T04:07:29.772Z,22.13
2019-06-26T04:10:00.234Z,22.15
2019-06-26T04:12:31.204Z,22.18
2019-06-26T04:15:02.819Z,22.24
2019-06-26T04:17:34.688Z,22.28
2019-06-26T04:20:05.954Z,22.30
2019-06-26T04:22:36.189Z,22.28
2019-06-26T04:25:07.608Z,22.23
2019-06-26T04:27:38.845Z,22.24
2019-06-26T04:30:11.249Z,22.28
2019-06-26T04:35:10.995Z,22.26
2019-06-26T04:37:41.286Z,22.34
2019-06-26T04:40:11.659Z,22.39
2019-06-26T04:42:41.837Z,22.53
2019-06-26T04:45:12.602Z,22.61
2019-06-26T04:47:42.894Z,22.67
2019-06-26T04:50:13.750Z,22.69
2019-06-26T04:52:43.962Z,22.73
2019-06-26T04:55:14.302Z,22.77
2019-06-26T04:57:44.828Z,22.82
2019-06-26T05:00:15.863Z,22.79
2019-06-26T05:02:46.104Z,22.90
2019-06-26T05:05:17.999Z,22.95
2019-06-26T05:07:48.303Z,23.01
2019-06-26T05:10:19.231Z,23.06
2019-06-26T05:12:49.454Z,23.09
2019-06-26T05:15:21.172Z,23.22
2019-06-26T05:17:51.507Z,23.34
2019-06-26T05:20:22.758Z,23.38
2019-06-26T05:22:53.402Z,23.41
2019-06-26T05:25:23.792Z,23.45
2019-06-26T05:27:54.394Z,23.54
2019-06-26T05:30:25.181Z,23.56
2019-06-26T05:32:55.430Z,23.61
2019-06-26T05:35:26.014Z,23.66
2019-06-26T05:37:56.267Z,23.75
2019-06-26T05:40:26.481Z,23.89
2019-06-26T05:42:56.741Z,23.96
2019-06-26T05:45:26.953Z,24.02
2019-06-26T05:47:57.521Z,24.14
2019-06-26T05:50:28.153Z,24.20
2019-06-26T05:52:58.863Z,24.22
2019-06-26T05:55:29.164Z,24.32
2019-06-26T05:57:59.669Z,24.36
2019-06-26T06:00:30.065Z,24.46
2019-06-26T06:03:00.266Z,24.55
2019-06-26T06:05:30.676Z,24.58
2019-06-26T06:08:01.229Z,24.67
2019-06-26T06:10:31.520Z,24.77
2019-06-26T06:13:01.752Z,24.86
2019-06-26T06:15:32.518Z,24.98
2019-06-26T06:18:02.928Z,25.12
2019-06-26T06:20:38.773Z,25.23
2019-06-26T06:23:10.064Z,25.28
2019-06-26T06:25:40.741Z,25.35
2019-06-26T06:28:11.270Z,25.41
2019-06-26T06:30:42.248Z,25.50
2019-06-26T06:33:12.862Z,25.62
2019-06-26T06:35:44.128Z,25.68
2019-06-26T06:38:14.838Z,25.77
2019-06-26T06:40:46.122Z,25.89
2019-06-26T06:43:16.975Z,26.02
2019-06-26T06:45:47.926Z,26.13
2019-06-26T06:48:18.600Z,26.30
2019-06-26T06:50:49.022Z,26.44
2019-06-26T06:53:19.285Z,26.57
2019-06-26T06:55:49.589Z,26.65
2019-06-26T06:58:19.829Z,26.72
2019-06-26T07:00:50.179Z,26.77
2019-06-26T07:03:20.884Z,26.84
2019-06-26T07:05:51.047Z,26.97
2019-06-26T07:08:21.304Z,27.07
2019-06-26T07:10:51.639Z,27.20
2019-06-26T07:13:21.999Z,27.30
2019-06-26T07:15:52.327Z,27.35
2019-06-26T07:18:22.870Z,27.45
2019-06-26T07:20:53.394Z,27.54
2019-06-26T07:23:24.263Z,27.62
2019-06-26T07:25:54.622Z,27.68
2019-06-26T07:28:25.277Z,27.83
2019-06-26T07:30:55.828Z,27.99
2019-06-26T07:33:26.143Z,28.00
2019-06-26T07:35:56.494Z,28.07
2019-06-26T07:38:26.737Z,28.13
2019-06-26T07:40:57.005Z,28.22
2019-06-26T07:43:27.569Z,28.39
2019-06-26T07:45:58.809Z,28.45
2019-06-26T07:48:29.381Z,28.60
2019-06-26T07:50:59.802Z,28.61
2019-06-26T07:53:30.320Z,28.68
2019-06-26T07:56:00.642Z,28.68
2019-06-26T07:58:30.918Z,28.81
2019-06-26T08:01:01.280Z,28.84
2019-06-26T08:03:31.604Z,29.01
2019-06-26T08:06:02.004Z,29.18
2019-06-26T08:08:32.367Z,29.29
2019-06-26T08:11:06.274Z,29.36
2019-06-26T08:13:34.687Z,29.50
2019-06-26T08:16:05.533Z,29.57
2019-06-26T08:18:35.871Z,29.67
2019-06-26T08:21:12.471Z,29.74
2019-06-26T08:23:39.516Z,29.87
2019-06-26T08:26:10.225Z,30.01
2019-06-26T08:28:41.036Z,30.13
2019-06-26T08:31:11.720Z,30.26
2019-06-26T08:33:42.262Z,30.23
2019-06-26T08:36:12.560Z,30.30
2019-06-26T08:38:42.847Z,30.42
2019-06-26T08:41:13.111Z,30.58
2019-06-26T08:43:43.428Z,30.72
2019-06-26T08:46:14.190Z,31.03
2019-06-26T08:48:44.428Z,31.09
2019-06-26T08:51:14.696Z,31.23
2019-06-26T08:53:44.974Z,31.09
2019-06-26T08:56:15.262Z,31.30
2019-06-26T08:58:45.598Z,31.56
2019-06-26T09:01:15.977Z,31.73
2019-06-26T09:03:46.247Z,31.82
2019-06-26T09:06:17.067Z,31.86
2019-06-26T09:08:47.395Z,32.00
2019-06-26T09:11:17.731Z,32.08
2019-06-26T09:13:48.104Z,32.27
2019-06-26T09:16:18.404Z,32.41
2019-06-26T09:18:49.297Z,32.41
2019-06-26T09:21:19.556Z,32.41
2019-06-26T09:23:49.813Z,32.48
2019-06-26T09:26:20.570Z,32.68
2019-06-26T09:28:51.222Z,32.85
2019-06-26T09:31:21.436Z,32.91
2019-06-26T09:33:52.078Z,33.05
2019-06-26T09:36:22.309Z,33.14
2019-06-26T09:38:52.574Z,33.34
2019-06-26T09:41:22.943Z,33.32
2019-06-26T09:43:53.360Z,33.71
2019-06-26T09:46:23.690Z,33.91
2019-06-26T09:48:54.062Z,34.16
2019-06-26T09:51:24.856Z,34.35
2019-06-26T09:53:55.238Z,34.30
2019-06-26T09:56:25.623Z,34.44
2019-06-26T09:58:56.014Z,34.87
2019-06-26T10:01:26.745Z,35.14
2019-06-26T10:03:57.406Z,35.58
2019-06-26T10:06:27.973Z,35.83
2019-06-26T10:08:58.539Z,36.10
2019-06-26T10:11:29.930Z,36.33
2019-06-26T10:14:00.305Z,36.83
2019-06-26T10:16:30.976Z,37.41
2019-06-26T10:19:10.132Z,37.83
2019-06-26T10:21:34.976Z,37.99
2019-06-26T10:24:05.279Z,37.59
2019-06-26T10:26:35.487Z,38.36
2019-06-26T10:29:06.048Z,38.17
2019-06-26T10:31:36.301Z,38.66
2019-06-26T10:34:09.851Z,38.81
2019-06-26T10:36:38.591Z,39.23
2019-06-26T10:39:09.599Z,39.43
2019-06-26T10:41:40.103Z,39.51
2019-06-26T10:44:10.390Z,39.41
2019-06-26T10:46:40.730Z,39.60
2019-06-26T10:49:25.827Z,40.14
2019-06-26T10:51:43.012Z,40.15
2019-06-26T10:54:13.282Z,40.16
2019-06-26T10:56:43.550Z,40.44
2019-06-26T10:59:13.809Z,40.94
2019-06-26T11:01:44.046Z,41.31
2019-06-26T11:04:14.390Z,42.16
2019-06-26T11:06:44.694Z,42.16
2019-06-26T11:09:15.341Z,42.34
2019-06-26T11:11:45.552Z,42.14
2019-06-26T11:14:15.917Z,43.14
2019-06-26T11:16:46.300Z,42.47
2019-06-26T11:19:16.608Z,42.40
2019-06-26T11:21:46.887Z,42.95
2019-06-26T11:24:17.395Z,43.31
2019-06-26T11:26:47.711Z,43.65
2019-06-26T11:29:18.003Z,44.19
2019-06-26T11:31:48.662Z,44.30
2019-06-26T11:34:19.317Z,44.04
2019-06-26T11:37:03.095Z,44.44
2019-06-26T11:39:21.810Z,44.77
2019-06-26T11:41:52.101Z,44.71
2019-06-26T11:44:22.611Z,45.13
2019-06-26T11:46:53.062Z,45.62
2019-06-26T11:49:23.567Z,44.90
2019-06-26T11:51:53.823Z,44.90
2019-06-26T11:54:24.112Z,45.61
2019-06-26T11:56:54.377Z,46.58
2019-06-26T11:59:24.674Z,46.25
2019-06-26T12:01:54.898Z,47.17
2019-06-26T12:04:25.165Z,47.55
2019-06-26T12:06:55.321Z,47.45
2019-06-26T12:09:25.525Z,46.96
2019-06-26T12:11:55.772Z,46.94
2019-06-26T12:14:26.354Z,47.41
2019-06-26T12:16:56.628Z,47.93
2019-06-26T12:19:26.794Z,48.55
2019-06-26T12:21:57.084Z,48.35
2019-06-26T12:24:27.243Z,48.29
2019-06-26T12:26:57.513Z,48.33
2019-06-26T12:29:27.992Z,48.45
2019-06-26T12:31:58.257Z,48.68
2019-06-26T12:34:28.461Z,49.05
2019-06-26T12:36:58.848Z,48.29
2019-06-26T12:39:29.112Z,49.42
2019-06-26T12:41:59.555Z,49.33
2019-06-26T12:44:29.870Z,49.58
2019-06-26T12:47:00.480Z,49.26
2019-06-26T12:49:30.736Z,49.59
2019-06-26T12:52:01.043Z,48.31
2019-06-26T12:54:31.279Z,49.30
2019-06-26T12:57:01.549Z,48.94
2019-06-26T12:59:31.866Z,49.02
2019-06-26T13:02:02.170Z,49.02
2019-06-26T13:04:32.396Z,49.38
2019-06-26T13:07:02.577Z,50.24
2019-06-26T13:09:32.995Z,50.71
2019-06-26T13:12:03.623Z,50.84
2019-06-26T13:14:33.903Z,50.27
2019-06-26T13:17:04.151Z,49.89
2019-06-26T13:19:34.359Z,50.26
2019-06-26T13:22:04.573Z,50.65
2019-06-26T13:24:34.829Z,50.07
2019-06-26T13:27:05.011Z,50.84
2019-06-26T13:29:35.217Z,51.20
2019-06-26T13:32:05.504Z,51.00
2019-06-26T13:34:35.998Z,50.35
2019-06-26T13:37:07.419Z,50.43
2019-06-26T13:39:37.846Z,50.73
2019-06-26T13:42:08.113Z,50.89
2019-06-26T13:44:38.604Z,51.38
2019-06-26T13:47:08.960Z,52.13
2019-06-26T13:49:39.582Z,51.41
2019-06-26T13:52:09.818Z,51.78
2019-06-26T13:54:40.688Z,52.96
2019-06-26T13:57:10.992Z,53.39
2019-06-26T13:59:41.229Z,52.80
2019-06-26T14:02:11.495Z,52.56
2019-06-26T14:04:41.739Z,53.15
2019-06-26T14:07:12.069Z,53.15
2019-06-26T14:09:42.569Z,52.95
2019-06-26T14:12:12.874Z,53.86
2019-06-26T14:14:56.956Z,53.31
2019-06-26T14:17:15.322Z,53.94
2019-06-26T14:19:45.520Z,54.24
2019-06-26T14:22:15.841Z,53.47
2019-06-26T14:24:46.080Z,53.82
2019-06-26T14:27:17.274Z,53.72
2019-06-26T14:29:47.647Z,53.85
2019-06-26T14:32:17.869Z,53.34
2019-06-26T14:34:48.439Z,53.05
2019-06-26T14:37:18.759Z,53.10
2019-06-26T14:39:49.255Z,52.76
2019-06-26T14:42:19.695Z,53.56
2019-06-26T14:44:52.706Z,53.03
2019-06-26T14:47:22.505Z,52.37
2019-06-26T14:49:52.684Z,53.53
2019-06-26T14:52:23.157Z,53.73
2019-06-26T14:54:53.363Z,53.65
2019-06-26T14:57:25.939Z,53.82
2019-06-26T14:59:55.735Z,53.73
2019-06-26T15:02:26.199Z,52.91
2019-06-26T15:04:56.523Z,53.88
2019-06-26T15:07:27.194Z,53.95
2019-06-26T15:09:58.819Z,54.89
2019-06-26T15:12:29.068Z,53.34
2019-06-26T15:14:59.350Z,53.96
2019-06-26T15:17:29.633Z,54.37
2019-06-26T15:20:00.016Z,54.75
2019-06-26T15:22:30.521Z,55.11
2019-06-26T15:25:00.750Z,53.99
2019-06-26T15:27:31.304Z,53.89
2019-06-26T15:30:01.591Z,53.51
2019-06-26T15:32:33.675Z,54.30
2019-06-26T15:35:04.583Z,52.92
2019-06-26T15:37:34.786Z,53.45
2019-06-26T15:40:06.611Z,53.36
2019-06-26T15:42:36.763Z,54.15
2019-06-26T15:45:08.631Z,55.43
2019-06-26T15:47:38.838Z,54.36
2019-06-26T15:50:10.871Z,54.28
2019-06-26T15:52:41.807Z,54.43
2019-06-26T15:55:12.327Z,53.19
2019-06-26T15:57:42.593Z,51.60
2019-06-26T16:00:13.586Z,53.50
2019-06-26T16:02:43.796Z,53.27
2019-06-26T16:05:14.231Z,53.84
2019-06-26T16:07:44.658Z,53.00
2019-06-26T16:10:14.912Z,53.94
2019-06-26T16:12:45.154Z,54.59
2019-06-26T16:15:15.904Z,54.26
2019-06-26T16:18:09.380Z,53.90
2019-06-26T16:20:40.543Z,54.41
2019-06-26T16:23:11.012Z,54.03
2019-06-26T16:25:41.816Z,54.18
2019-06-26T16:28:11.996Z,53.92
2019-06-26T16:30:42.573Z,54.56
2019-06-26T16:33:13.269Z,53.50
2019-06-26T16:35:43.458Z,53.69
2019-06-26T16:38:14.096Z,53.16
2019-06-26T16:40:44.571Z,53.46
2019-06-26T16:43:14.919Z,54.09
2019-06-26T16:45:45.591Z,53.03
2019-06-26T16:48:16.240Z,53.39
2019-06-26T16:50:46.504Z,52.69
2019-06-26T16:53:17.580Z,52.46
2019-06-26T16:55:47.988Z,52.58
2019-06-26T16:58:18.460Z,51.95
2019-06-26T17:00:48.737Z,52.54
2019-06-26T17:03:19.455Z,52.02
2019-06-26T17:05:49.698Z,51.86
2019-06-26T17:08:19.995Z,51.44
2019-06-26T17:10:50.242Z,51.07
2019-06-26T17:13:20.624Z,50.28
2019-06-26T17:15:50.881Z,49.98
2019-06-26T17:18:21.534Z,49.57
2019-06-26T17:20:52.047Z,48.66
2019-06-26T17:23:23.273Z,48.62
2019-06-26T17:25:53.566Z,48.31
2019-06-26T17:28:24.004Z,47.76
2019-06-26T17:30:54.267Z,46.68
2019-06-26T17:33:24.713Z,46.99
2019-06-26T17:35:55.559Z,46.26
2019-06-26T17:38:25.890Z,46.35
2019-06-26T17:40:59.321Z,46.19
2019-06-26T17:43:28.101Z,46.20
2019-06-26T17:45:58.379Z,45.23
2019-06-26T17:48:29.503Z,45.44
2019-06-26T17:50:59.763Z,44.42
2019-06-26T17:53:29.975Z,44.23
2019-06-26T17:56:00.193Z,43.76
2019-06-26T17:58:30.704Z,43.50
2019-06-26T18:01:01.351Z,43.28
2019-06-26T18:03:31.958Z,42.39
2019-06-26T18:06:02.488Z,41.73
2019-06-26T18:08:33.365Z,40.78
2019-06-26T18:11:03.671Z,40.08
2019-06-26T18:13:34.559Z,39.37
2019-06-26T18:16:05.213Z,38.77
2019-06-26T18:18:37.608Z,38.25
2019-06-26T18:21:08.472Z,37.91
2019-06-26T18:23:38.858Z,37.56
2019-06-26T18:26:13.506Z,37.08
2019-06-26T18:28:41.340Z,36.52
2019-06-26T18:31:11.808Z,36.31
2019-06-26T18:33:44.343Z,35.98
2019-06-26T18:36:14.419Z,35.72
2019-06-26T18:38:45.315Z,35.61
2019-06-26T18:41:18.633Z,35.50
2019-06-26T18:43:48.869Z,35.22
2019-06-26T18:46:19.667Z,35.01
2019-06-26T18:48:49.846Z,34.93
2019-06-26T18:51:20.528Z,34.80
2019-06-26T18:53:53.905Z,34.57
2019-06-26T18:56:23.121Z,34.43
2019-06-26T18:58:53.451Z,34.22
2019-06-26T19:01:24.167Z,34.05
2019-06-26T19:03:54.740Z,33.89
2019-06-26T19:06:26.366Z,33.69
2019-06-26T19:08:56.700Z,33.46
2019-06-26T19:11:27.384Z,33.27
2019-06-26T19:13:57.917Z,33.07
2019-06-26T19:16:28.393Z,32.88
2019-06-26T19:18:59.130Z,32.70
2019-06-26T19:21:29.440Z,32.54
2019-06-26T19:24:09.467Z,32.40
2019-06-26T19:26:32.322Z,32.21
2019-06-26T19:29:03.345Z,32.01
2019-06-26T19:31:33.650Z,31.83
2019-06-26T19:34:04.133Z,31.64
2019-06-26T19:36:49.069Z,31.53
2019-06-26T19:39:08.193Z,31.40
2019-06-26T19:41:38.537Z,31.28
2019-06-26T19:44:09.214Z,31.19
2019-06-26T19:46:41.893Z,31.04
2019-06-26T19:49:11.489Z,30.92
2019-06-26T19:51:41.761Z,30.80
2019-06-26T19:54:26.030Z,30.76
2019-06-26T19:56:43.945Z,30.77
2019-06-26T19:59:14.224Z,30.53
2019-06-26T20:01:44.579Z,30.30
2019-06-26T20:04:15.267Z,30.14
2019-06-26T20:06:47.166Z,30.07
2019-06-26T20:09:17.938Z,30.05
2019-06-26T20:11:49.332Z,29.98
2019-06-26T20:14:19.989Z,29.95
2019-06-26T20:16:50.540Z,29.85
2019-06-26T20:19:21.680Z,29.76
2019-06-26T20:21:52.806Z,29.67
2019-06-26T20:24:23.709Z,29.66
2019-06-26T20:26:54.377Z,29.56
2019-06-26T20:29:25.331Z,29.42
2019-06-26T20:31:55.724Z,29.30
2019-06-26T20:34:31.510Z,29.20
2019-06-26T20:37:01.866Z,29.15
2019-06-26T20:39:32.146Z,29.04
2019-06-26T20:42:02.808Z,28.98
2019-06-26T20:44:34.179Z,28.95
2019-06-26T20:47:04.474Z,28.90
2019-06-26T20:49:34.997Z,28.83
2019-06-26T20:52:05.448Z,28.75
2019-06-26T20:54:35.757Z,28.63
2019-06-26T20:57:06.527Z,28.54
2019-06-26T20:59:38.032Z,28.48
2019-06-26T21:02:08.492Z,28.42
2019-06-26T21:04:39.178Z,28.35
2019-06-26T21:07:09.755Z,28.27
2019-06-26T21:09:40.923Z,28.21
2019-06-26T21:12:12.975Z,28.10
2019-06-26T21:14:43.546Z,28.01
2019-06-26T21:17:13.763Z,27.97
2019-06-26T21:19:44.094Z,27.97
2019-06-26T21:22:14.447Z,27.96
2019-06-26T21:24:44.677Z,27.94
2019-06-26T21:27:15.408Z,27.85
2019-06-26T21:29:46.006Z,27.85
2019-06-26T21:32:16.349Z,27.80
2019-06-26T21:34:47.088Z,27.75
2019-06-26T21:37:17.379Z,27.64
2019-06-26T21:39:47.888Z,27.53
2019-06-26T21:42:18.325Z,27.49
2019-06-26T21:44:48.889Z,27.44
2019-06-26T21:47:19.557Z,27.41
2019-06-26T21:49:50.623Z,27.45
2019-06-26T21:52:21.793Z,27.38
2019-06-26T21:54:52.794Z,27.24
2019-06-26T21:57:41.168Z,27.12
2019-06-26T22:00:32.573Z,27.06
2019-06-26T22:03:21.031Z,27.12
2019-06-26T22:05:52.879Z,27.11
2019-06-26T22:08:41.549Z,27.03
2019-06-26T22:11:13.105Z,26.96
2019-06-26T22:13:43.660Z,26.89
2019-06-26T22:16:13.877Z,26.75
2019-06-26T22:18:44.247Z,26.68
2019-06-26T22:21:14.497Z,26.60
2019-06-26T22:23:44.983Z,26.56
2019-06-26T22:26:15.201Z,26.50
2019-06-26T22:28:45.731Z,26.56
2019-06-26T22:31:16.139Z,26.57
2019-06-26T22:33:46.736Z,26.54
2019-06-26T22:36:16.981Z,26.46
2019-06-26T22:38:47.271Z,26.32
2019-06-26T22:41:17.485Z,26.24
2019-06-26T22:43:47.797Z,26.19
2019-06-26T22:46:18.208Z,26.20
2019-06-26T22:48:48.526Z,26.17
2019-06-26T22:51:19.772Z,26.14
2019-06-26T22:53:50.331Z,26.16
2019-06-26T22:56:21.202Z,26.16
2019-06-26T22:58:51.804Z,26.15
2019-06-26T23:01:22.517Z,26.10
2019-06-26T23:03:52.725Z,26.02
2019-06-26T23:06:23.838Z,25.99
2019-06-26T23:11:34.097Z,26.00
2019-06-26T23:14:04.398Z,25.92
2019-06-26T23:16:34.681Z,25.89
2019-06-26T23:19:04.943Z,25.79
2019-06-26T23:21:36.275Z,25.63
2019-06-26T23:24:06.518Z,25.52
2019-06-26T23:26:36.996Z,25.43
2019-06-26T23:29:07.652Z,25.37
2019-06-26T23:31:38.001Z,25.30
2019-06-26T23:34:08.289Z,25.27
2019-06-26T23:36:38.576Z,25.20
2019-06-26T23:39:08.838Z,25.09
2019-06-26T23:41:39.053Z,24.97
2019-06-26T23:44:09.282Z,24.87
2019-06-26T23:46:39.505Z,24.79
2019-06-26T23:49:10.978Z,24.70
2019-06-26T23:51:41.851Z,24.66
2019-06-26T23:54:12.097Z,24.61
2019-06-26T23:56:42.455Z,24.63
2019-06-26T23:59:12.691Z,24.60
